Time;durP1;ratioP1;P1;durP2;ratioP2;P2;SDS_P1;SDS_P2;PMS_P1;PMS_P2;Temp;Humidity;BMP_temperature;BMP_pressure;BME280_temperature;BME280_humidity;BME280_pressure;Samples;Min_cycle;Max_cycle;Signal;HPM_P1;HPM_P2
2023/05/09 00:00:29;;;;;;;414.70;394.03;;;15.50;99.90;;;;;;6215307;23;20471;-86
2023/05/09 00:02:56;;;;;;;435.27;412.10;;;15.60;99.90;;;;;;6215315;23;20919;-87
2023/05/09 00:05:25;;;;;;;453.77;429.07;;;15.50;99.90;;;;;;6215567;23;20415;-86
2023/05/09 00:07:54;;;;;;;447.47;423.67;;;15.40;99.90;;;;;;6215762;23;20498;-86
2023/05/09 00:10:21;;;;;;;460.03;434.30;;;15.40;99.90;;;;;;6215354;23;20493;-86
2023/05/09 00:12:48;;;;;;;463.17;436.10;;;15.30;99.90;;;;;;6215352;23;20472;-87
2023/05/09 00:15:15;;;;;;;467.67;440.67;;;15.30;99.90;;;;;;6215628;23;20425;-87
2023/05/09 00:17:44;;;;;;;487.87;458.53;;;15.30;99.90;;;;;;6215956;23;20414;-86
2023/05/09 00:20:12;;;;;;;472.53;445.47;;;15.30;99.90;;;;;;6215142;23;20493;-86
2023/05/09 00:22:40;;;;;;;481.50;452.30;;;15.30;99.90;;;;;;6215895;23;20420;-87
2023/05/09 00:25:10;;;;;;;488.27;457.63;;;15.20;99.90;;;;;;6215369;23;20414;-86
2023/05/09 00:27:37;;;;;;;501.43;470.70;;;15.20;99.90;;;;;;6215660;23;20424;-87
2023/05/09 00:30:05;;;;;;;489.03;459.13;;;15.30;99.90;;;;;;6215453;23;20413;-86
2023/05/09 00:32:32;;;;;;;490.93;460.43;;;15.20;99.90;;;;;;6225212;23;20422;-87
2023/05/09 00:34:59;;;;;;;485.03;454.70;;;15.20;99.90;;;;;;6225639;23;20409;-86
2023/05/09 00:37:26;;;;;;;490.63;460.50;;;15.20;99.90;;;;;;6217189;23;20413;-87
2023/05/09 00:39:53;;;;;;;476.30;447.87;;;15.20;99.90;;;;;;6215628;23;20481;-86
2023/05/09 00:42:23;;;;;;;474.70;446.23;;;15.20;99.90;;;;;;6225652;23;20438;-86
2023/05/09 00:44:50;;;;;;;483.20;453.60;;;15.20;99.90;;;;;;6215369;23;20435;-86
2023/05/09 00:47:16;;;;;;;473.37;444.60;;;15.30;99.90;;;;;;6215187;23;20478;-86
2023/05/09 00:49:44;;;;;;;470.57;441.30;;;15.40;99.90;;;;;;6214926;23;20893;-86
2023/05/09 00:52:10;;;;;;;475.57;446.13;;;15.40;99.90;;;;;;6215244;23;20522;-87
2023/05/09 00:54:37;;;;;;;461.63;433.60;;;15.40;99.90;;;;;;6224909;23;20925;-87
2023/05/09 00:57:04;;;;;;;470.20;440.53;;;15.40;99.90;;;;;;6215122;23;20574;-87
2023/05/09 00:59:33;;;;;;;464.83;437.60;;;15.40;99.90;;;;;;6214808;23;20421;-86
2023/05/09 01:02:00;;;;;;;463.57;435.40;;;15.40;99.90;;;;;;6215353;23;20423;-86
2023/05/09 01:04:27;;;;;;;457.17;429.63;;;15.40;99.90;;;;;;6225013;23;20779;-86
2023/05/09 01:07:03;;;;;;;469.03;441.27;;;15.40;99.90;;;;;;6214816;23;20421;-87
2023/05/09 01:09:37;;;;;;;445.80;419.47;;;15.50;99.90;;;;;;6214559;23;20397;-87
2023/05/09 01:12:13;;;;;;;442.67;417.53;;;15.50;99.90;;;;;;6215502;23;20721;-87
2023/05/09 01:14:50;;;;;;;439.77;415.03;;;15.50;99.90;;;;;;6215021;23;20405;-86
2023/05/09 01:17:27;;;;;;;439.53;416.13;;;15.50;99.90;;;;;;6225328;23;20452;-86
2023/05/09 01:20:04;;;;;;;429.00;406.13;;;15.50;99.90;;;;;;6225092;23;20792;-86
2023/05/09 01:22:34;;;;;;;428.20;404.90;;;15.50;99.90;;;;;;6225478;23;20422;-86
2023/05/09 01:25:35;;;;;;;423.17;399.97;;;15.60;99.90;;;;;;6214878;23;20409;-86
2023/05/09 01:28:13;;;;;;;426.03;403.07;;;15.50;99.90;;;;;;6215009;23;20424;-86
2023/05/09 01:30:45;;;;;;;414.97;392.20;;;15.50;99.90;;;;;;6214730;23;20406;-86
2023/05/09 01:33:16;;;;;;;416.80;394.60;;;15.50;99.90;;;;;;6214637;23;20860;-87
2023/05/09 01:35:46;;;;;;;427.90;405.33;;;15.50;99.90;;;;;;6215281;23;20802;-87
2023/05/09 01:38:18;;;;;;;412.27;391.23;;;15.50;99.90;;;;;;6214892;23;20412;-86
2023/05/09 01:40:47;;;;;;;409.90;388.80;;;15.50;99.90;;;;;;6214452;23;20421;-86
2023/05/09 01:43:16;;;;;;;397.20;378.00;;;15.50;99.90;;;;;;6215135;23;20413;-87
2023/05/09 01:45:45;;;;;;;369.47;351.63;;;15.50;99.90;;;;;;6214895;23;20413;-87
2023/05/09 01:48:14;;;;;;;351.80;335.27;;;15.50;99.90;;;;;;6214580;23;20501;-88
2023/05/09 01:50:43;;;;;;;348.73;332.70;;;15.50;99.90;;;;;;6214355;23;20414;-87
2023/05/09 01:53:11;;;;;;;353.60;337.57;;;15.50;99.90;;;;;;6214637;23;20421;-87
2023/05/09 01:55:41;;;;;;;368.13;351.13;;;15.60;99.90;;;;;;6224903;23;20921;-87
2023/05/09 01:58:09;;;;;;;366.97;350.27;;;15.60;99.90;;;;;;6215002;23;20411;-87
2023/05/09 02:00:37;;;;;;;369.97;352.50;;;15.60;99.90;;;;;;6214788;23;20434;-86
2023/05/09 02:03:06;;;;;;;363.53;346.70;;;15.60;99.90;;;;;;6214475;23;20444;-86
2023/05/09 02:05:34;;;;;;;360.33;344.10;;;15.50;99.90;;;;;;6214449;23;20897;-87
2023/05/09 02:08:01;;;;;;;365.93;349.03;;;15.50;99.90;;;;;;6214372;23;20424;-87
2023/05/09 02:10:32;;;;;;;371.00;353.97;;;15.60;99.90;;;;;;6214364;23;20407;-86
2023/05/09 02:12:59;;;;;;;349.30;333.10;;;15.50;99.90;;;;;;6214975;23;20695;-86
2023/05/09 02:15:29;;;;;;;351.53;335.37;;;15.50;99.90;;;;;;6214854;23;20414;-87
2023/05/09 02:17:56;;;;;;;363.87;346.10;;;15.40;99.90;;;;;;6224348;23;20491;-87
2023/05/09 02:20:24;;;;;;;377.97;360.17;;;15.50;99.90;;;;;;6214309;23;20443;-87
2023/05/09 02:22:52;;;;;;;382.90;364.87;;;15.50;99.90;;;;;;6216868;23;20440;-87
2023/05/09 02:25:19;;;;;;;384.30;366.00;;;15.50;99.90;;;;;;6226627;23;20405;-86
2023/05/09 02:27:47;;;;;;;383.07;365.17;;;15.50;99.90;;;;;;6216465;23;21001;-86
2023/05/09 02:30:22;;;;;;;378.23;359.27;;;15.50;99.90;;;;;;6216546;23;20502;-87
2023/05/09 02:32:52;;;;;;;383.20;364.40;;;15.50;99.90;;;;;;6226440;23;20445;-86
2023/05/09 02:35:24;;;;;;;403.77;383.33;;;15.40;99.90;;;;;;6216992;23;20421;-87
2023/05/09 02:37:52;;;;;;;416.03;395.23;;;15.40;99.90;;;;;;6216700;23;20407;-86
2023/05/09 02:40:20;;;;;;;420.30;399.57;;;15.50;99.90;;;;;;6216293;23;20470;-86
2023/05/09 02:42:47;;;;;;;437.70;415.27;;;15.50;99.90;;;;;;6216257;23;20413;-86
2023/05/09 02:45:14;;;;;;;447.63;423.53;;;15.50;99.90;;;;;;6216525;23;20416;-86
2023/05/09 02:47:41;;;;;;;450.77;426.23;;;15.50;99.90;;;;;;6226219;23;20419;-87
2023/05/09 02:50:12;;;;;;;446.30;422.03;;;15.40;99.90;;;;;;6216370;23;21003;-87
2023/05/09 02:52:42;;;;;;;445.73;421.23;;;15.40;99.90;;;;;;6216615;23;20415;-87
2023/05/09 02:55:10;;;;;;;453.80;428.87;;;15.40;99.90;;;;;;6216508;23;20421;-87
2023/05/09 02:57:37;;;;;;;447.83;423.37;;;15.40;99.90;;;;;;6216379;23;20419;-86
2023/05/09 03:00:08;;;;;;;450.77;425.80;;;15.40;99.90;;;;;;6215880;23;20906;-86
2023/05/09 03:02:39;;;;;;;448.87;424.07;;;15.30;99.90;;;;;;6216088;23;20426;-86
2023/05/09 03:05:08;;;;;;;448.77;424.53;;;15.30;99.90;;;;;;6216285;23;20419;-87
2023/05/09 03:07:35;;;;;;;449.03;424.87;;;15.40;99.90;;;;;;6216428;23;20481;-86
2023/05/09 03:10:04;;;;;;;454.27;429.07;;;15.40;99.90;;;;;;6225944;23;20406;-86
2023/05/09 03:12:31;;;;;;;447.87;424.20;;;15.40;99.90;;;;;;6226169;23;20422;-86
2023/05/09 03:15:01;;;;;;;442.97;418.37;;;15.30;99.90;;;;;;6216519;23;20414;-86
2023/05/09 03:17:30;;;;;;;444.43;420.93;;;15.30;99.90;;;;;;6216346;23;20445;-86
2023/05/09 03:19:57;;;;;;;446.77;422.60;;;15.40;99.90;;;;;;6215957;23;20418;-87
2023/05/09 03:22:23;;;;;;;434.97;410.90;;;15.30;99.90;;;;;;6216136;23;20435;-86
2023/05/09 03:24:50;;;;;;;453.40;427.70;;;15.30;99.90;;;;;;6216371;23;20451;-86
2023/05/09 03:27:19;;;;;;;458.77;432.20;;;15.40;99.90;;;;;;6216229;23;20425;-86
2023/05/09 03:29:46;;;;;;;444.20;418.43;;;15.40;99.90;;;;;;6225870;23;20482;-87
2023/05/09 03:32:13;;;;;;;444.20;419.37;;;15.40;99.90;;;;;;6216077;23;20496;-87
2023/05/09 03:34:43;;;;;;;446.77;421.67;;;15.40;99.90;;;;;;6215589;23;20449;-86
2023/05/09 03:37:13;;;;;;;450.13;424.13;;;15.40;99.90;;;;;;6226090;23;20769;-86
2023/05/09 03:39:40;;;;;;;452.07;426.10;;;15.20;99.90;;;;;;6216099;23;20782;-85
2023/05/09 03:42:07;;;;;;;444.17;419.07;;;15.30;99.90;;;;;;6216216;23;20526;-86
2023/05/09 03:44:35;;;;;;;446.77;420.57;;;15.30;99.90;;;;;;6216457;23;20413;-86
2023/05/09 03:47:02;;;;;;;451.77;426.30;;;15.30;99.90;;;;;;6225847;23;20411;-86
2023/05/09 03:49:29;;;;;;;438.43;413.47;;;15.40;99.90;;;;;;6226081;23;20406;-87
2023/05/09 03:51:55;;;;;;;449.13;423.80;;;15.30;99.90;;;;;;6225531;23;20425;-87
2023/05/09 03:54:22;;;;;;;448.87;423.70;;;15.30;99.90;;;;;;6215969;23;20743;-86
2023/05/09 03:56:49;;;;;;;449.30;424.30;;;15.20;99.90;;;;;;6225558;23;20446;-87
2023/05/09 03:59:16;;;;;;;455.43;430.17;;;15.30;99.90;;;;;;6215739;23;20446;-86
2023/05/09 04:01:45;;;;;;;449.23;423.43;;;15.30;99.90;;;;;;6215378;23;20968;-85
2023/05/09 04:04:17;;;;;;;457.53;430.33;;;15.20;99.90;;;;;;6215657;23;20444;-86
2023/05/09 04:06:45;;;;;;;463.17;436.07;;;15.20;99.90;;;;;;6216116;23;20397;-87
2023/05/09 04:09:12;;;;;;;473.07;445.07;;;15.20;99.90;;;;;;6215202;23;20420;-87
2023/05/09 04:11:39;;;;;;;457.17;430.10;;;15.10;99.90;;;;;;6225649;23;20497;-86
2023/05/09 04:14:06;;;;;;;462.93;435.13;;;15.10;99.90;;;;;;6214982;23;20445;-86
2023/05/09 04:16:46;;;;;;;468.17;440.27;;;15.20;99.90;;;;;;6216282;23;20412;-86
2023/05/09 04:19:15;;;;;;;470.57;442.47;;;15.20;99.90;;;;;;6225577;23;20423;-86
2023/05/09 04:21:41;;;;;;;467.97;439.83;;;15.10;99.90;;;;;;6215645;23;20768;-86
2023/05/09 04:24:08;;;;;;;475.33;446.93;;;15.10;99.90;;;;;;6215258;23;20415;-86
2023/05/09 04:26:37;;;;;;;458.37;431.10;;;15.10;99.90;;;;;;6215935;23;20751;-86
2023/05/09 04:29:04;;;;;;;464.30;437.23;;;15.10;99.90;;;;;;6215691;23;20417;-87
2023/05/09 04:31:31;;;;;;;453.53;427.50;;;15.10;99.90;;;;;;6215824;23;20504;-86
2023/05/09 04:33:59;;;;;;;447.80;422.70;;;15.20;99.90;;;;;;6225465;23;20406;-86
2023/05/09 04:36:28;;;;;;;437.40;413.30;;;15.20;99.90;;;;;;6215491;23;20472;-86
2023/05/09 04:38:54;;;;;;;431.63;408.10;;;15.20;99.90;;;;;;6224824;23;20468;-86
2023/05/09 04:41:22;;;;;;;425.57;401.67;;;15.40;99.90;;;;;;6225076;23;20434;-87
2023/05/09 04:43:50;;;;;;;434.93;411.43;;;15.30;99.90;;;;;;6215317;23;20426;-86
2023/05/09 04:46:17;;;;;;;424.87;401.67;;;15.40;99.90;;;;;;6215349;23;20415;-85
2023/05/09 04:48:44;;;;;;;428.30;405.70;;;15.40;99.90;;;;;;6214945;23;20517;-86
2023/05/09 04:51:11;;;;;;;410.93;389.30;;;15.40;99.90;;;;;;6215369;23;20722;-86
2023/05/09 04:53:39;;;;;;;408.90;387.90;;;15.50;99.90;;;;;;6215116;23;20422;-86
2023/05/09 04:56:06;;;;;;;404.17;383.90;;;15.50;99.90;;;;;;6215326;23;20441;-86
2023/05/09 04:58:33;;;;;;;409.33;387.67;;;15.60;99.90;;;;;;6215339;23;20447;-87
2023/05/09 05:01:00;;;;;;;405.33;384.83;;;15.60;99.90;;;;;;6214826;23;20445;-87
2023/05/09 05:03:26;;;;;;;397.30;377.30;;;15.60;99.90;;;;;;6224820;23;20926;-87
2023/05/09 05:05:53;;;;;;;399.67;378.67;;;15.70;99.90;;;;;;6214651;23;20930;-86
2023/05/09 05:08:20;;;;;;;405.30;384.73;;;15.70;99.90;;;;;;6224553;23;20443;-86
2023/05/09 05:10:48;;;;;;;394.87;375.50;;;15.70;99.90;;;;;;6215035;23;20453;-86
2023/05/09 05:13:15;;;;;;;395.47;375.93;;;15.80;99.90;;;;;;6214723;23;20412;-87
2023/05/09 05:15:42;;;;;;;370.90;353.80;;;15.90;99.90;;;;;;6215184;23;20814;-86
2023/05/09 05:18:09;;;;;;;354.20;337.77;;;16.00;99.90;;;;;;6224938;23;20793;-87
2023/05/09 05:20:36;;;;;;;336.30;320.70;;;16.00;99.90;;;;;;6215568;23;20487;-87
2023/05/09 05:23:03;;;;;;;320.83;306.97;;;16.10;99.90;;;;;;6216231;23;20446;-86
2023/05/09 05:25:30;;;;;;;314.10;300.40;;;16.10;99.90;;;;;;6215904;23;20415;-88
2023/05/09 05:27:58;;;;;;;291.53;279.03;;;16.20;99.90;;;;;;6214542;23;20425;-87
2023/05/09 05:30:25;;;;;;;276.30;264.83;;;16.40;99.90;;;;;;6214545;23;20422;-85
2023/05/09 05:32:52;;;;;;;243.40;233.23;;;16.40;99.90;;;;;;6214806;23;20415;-86
2023/05/09 05:35:21;;;;;;;200.70;192.33;;;16.60;99.90;;;;;;6214549;23;20421;-86
2023/05/09 05:37:48;;;;;;;149.27;142.17;;;16.80;99.90;;;;;;6214832;23;20419;-86
2023/05/09 05:40:15;;;;;;;102.57;97.23;;;16.80;99.90;;;;;;6214854;23;20413;-86
2023/05/09 05:42:43;;;;;;;72.97;68.10;;;17.10;99.90;;;;;;6214962;23;20749;-85
2023/05/09 05:45:11;;;;;;;55.77;51.63;;;17.20;99.90;;;;;;6214612;23;20415;-86
2023/05/09 05:47:38;;;;;;;41.63;37.73;;;17.40;99.90;;;;;;6214469;23;20468;-86
2023/05/09 05:50:09;;;;;;;30.13;27.13;;;17.60;99.90;;;;;;6214670;23;20733;-86
2023/05/09 05:52:35;;;;;;;28.90;24.80;;;17.70;99.90;;;;;;6214582;23;20852;-85
2023/05/09 05:55:02;;;;;;;29.70;21.80;;;18.00;99.90;;;;;;6214783;23;20417;-86
2023/05/09 05:57:29;;;;;;;25.50;19.77;;;18.30;99.90;;;;;;6216215;23;20412;-85
2023/05/09 05:59:56;;;;;;;26.87;19.67;;;18.40;99.90;;;;;;6216901;23;20739;-86
2023/05/09 06:02:24;;;;;;;26.20;18.43;;;18.40;99.90;;;;;;6216516;23;20443;-86
2023/05/09 06:04:51;;;;;;;26.83;16.73;;;18.60;99.90;;;;;;6216785;23;20418;-87
2023/05/09 06:07:18;;;;;;;29.37;18.27;;;18.60;99.90;;;;;;6216444;23;20422;-86
2023/05/09 06:09:45;;;;;;;24.97;18.07;;;18.70;99.90;;;;;;6216737;23;20437;-86
2023/05/09 06:12:15;;;;;;;24.27;17.93;;;18.80;99.90;;;;;;6216604;23;20410;-87
2023/05/09 06:14:42;;;;;;;23.20;18.57;;;18.80;99.90;;;;;;6216875;23;20423;-86
2023/05/09 06:17:09;;;;;;;26.50;19.10;;;18.80;99.90;;;;;;6216790;23;20421;-85
2023/05/09 06:19:37;;;;;;;20.60;16.77;;;19.10;99.90;;;;;;6216488;23;20419;-86
2023/05/09 06:22:04;;;;;;;24.43;17.83;;;19.20;99.90;;;;;;6216768;23;20930;-86
2023/05/09 06:24:30;;;;;;;21.37;17.30;;;19.40;99.90;;;;;;6216451;23;20414;-86
2023/05/09 06:27:04;;;;;;;23.17;17.57;;;19.40;99.90;;;;;;6217090;23;20418;-86
2023/05/09 06:29:31;;;;;;;24.10;17.90;;;19.50;99.90;;;;;;6216683;23;20422;-86
2023/05/09 06:31:58;;;;;;;26.73;17.90;;;19.40;99.90;;;;;;6216315;23;20486;-86
2023/05/09 06:34:25;;;;;;;25.93;18.50;;;19.70;99.90;;;;;;6216866;23;20418;-86
2023/05/09 06:36:53;;;;;;;25.13;18.90;;;19.60;99.90;;;;;;6216696;23;20415;-86
2023/05/09 06:39:20;;;;;;;23.00;18.30;;;19.40;99.90;;;;;;6216016;23;20919;-86
2023/05/09 06:41:47;;;;;;;25.30;18.40;;;19.30;99.90;;;;;;6215152;23;21063;-86
2023/05/09 06:44:16;;;;;;;24.83;17.27;;;19.30;99.90;;;;;;6215636;23;20924;-85
2023/05/09 06:46:43;;;;;;;23.70;17.03;;;19.20;99.90;;;;;;6215689;23;20415;-86
2023/05/09 06:49:10;;;;;;;25.50;17.43;;;19.10;99.90;;;;;;6215727;23;20414;-86
2023/05/09 06:51:36;;;;;;;21.83;17.30;;;19.10;99.90;;;;;;6215691;23;20437;-85
2023/05/09 06:54:05;;;;;;;27.43;20.13;;;19.00;99.90;;;;;;6215992;23;20422;-86
2023/05/09 06:56:31;;;;;;;24.50;18.00;;;19.20;99.90;;;;;;6215826;23;20421;-86
2023/05/09 06:58:58;;;;;;;24.90;17.70;;;19.40;99.90;;;;;;6225253;23;20417;-86
2023/05/09 07:01:25;;;;;;;22.83;16.40;;;19.70;99.90;;;;;;6215383;23;20787;-86
2023/05/09 07:03:52;;;;;;;26.33;19.13;;;19.80;99.90;;;;;;6215532;23;20492;-85
2023/05/09 07:06:19;;;;;;;22.80;17.77;;;19.70;99.90;;;;;;6215742;23;20487;-86
2023/05/09 07:08:46;;;;;;;26.77;18.63;;;19.80;99.90;;;;;;6215480;23;20419;-89
2023/05/09 07:11:17;;;;;;;25.90;17.57;;;19.90;99.90;;;;;;6217046;23;20414;-89
2023/05/09 07:13:43;;;;;;;24.83;16.03;;;20.00;99.90;;;;;;6217620;23;20399;-88
2023/05/09 07:16:10;;;;;;;25.77;16.07;;;20.20;99.90;;;;;;6216995;23;20414;-88
2023/05/09 07:18:37;;;;;;;25.00;16.47;;;20.20;99.90;;;;;;6227082;23;20411;-89
2023/05/09 07:21:04;;;;;;;25.50;16.37;;;20.40;99.90;;;;;;6217951;23;20710;-89
2023/05/09 07:23:31;;;;;;;22.17;16.97;;;20.50;99.90;;;;;;6218941;23;20437;-85
2023/05/09 07:25:58;;;;;;;21.47;15.23;;;20.60;99.90;;;;;;6216547;23;20414;-84
2023/05/09 07:28:26;;;;;;;16.50;10.97;;;20.30;99.90;;;;;;6216208;23;20499;-84
2023/05/09 07:30:56;;;;;;;15.07;10.23;;;20.40;99.90;;;;;;6226285;23;20712;-84
2023/05/09 07:33:23;;;;;;;16.10;9.20;;;20.20;99.90;;;;;;6216183;23;20414;-84
2023/05/09 07:35:51;;;;;;;15.50;9.23;;;20.10;99.90;;;;;;6216175;23;20451;-84
2023/05/09 07:38:18;;;;;;;10.70;6.10;;;20.00;99.90;;;;;;6216391;23;20473;-84
2023/05/09 07:40:45;;;;;;;11.00;8.07;;;19.90;97.50;;;;;;6215761;23;20940;-84
2023/05/09 07:43:12;;;;;;;9.70;6.10;;;19.80;98.90;;;;;;6216018;23;20943;-84
2023/05/09 07:45:40;;;;;;;10.43;6.27;;;19.80;96.90;;;;;;6215847;23;20447;-83
2023/05/09 07:48:08;;;;;;;12.07;6.70;;;19.80;97.40;;;;;;6215683;23;20447;-84
2023/05/09 07:50:35;;;;;;;11.20;6.70;;;19.70;96.00;;;;;;6216222;23;20511;-84
2023/05/09 07:53:02;;;;;;;12.90;6.80;;;19.80;95.80;;;;;;6216193;23;20449;-83
2023/05/09 07:55:28;;;;;;;11.47;5.87;;;19.80;96.70;;;;;;6215944;23;20466;-84
2023/05/09 07:57:55;;;;;;;14.73;7.87;;;19.90;95.10;;;;;;6216195;23;20419;-84
2023/05/09 08:00:23;;;;;;;11.30;6.50;;;20.20;95.30;;;;;;6215938;23;20412;-84
2023/05/09 08:02:51;;;;;;;9.60;5.73;;;20.50;95.30;;;;;;6215555;23;20445;-84
2023/05/09 08:05:18;;;;;;;11.90;6.20;;;20.50;92.80;;;;;;6215773;23;20412;-84
2023/05/09 08:07:45;;;;;;;10.97;5.77;;;20.90;92.60;;;;;;6215636;23;20925;-84
2023/05/09 08:10:12;;;;;;;10.97;5.83;;;21.00;92.10;;;;;;6215711;23;20415;-84
2023/05/09 08:12:39;;;;;;;11.03;5.00;;;21.20;92.20;;;;;;6215602;23;20994;-84
2023/05/09 08:15:07;;;;;;;8.60;4.10;;;21.30;92.20;;;;;;6215926;23;20434;-84
2023/05/09 08:17:36;;;;;;;8.60;4.43;;;21.20;89.30;;;;;;6215833;23;20421;-84
2023/05/09 08:20:06;;;;;;;9.53;4.83;;;21.30;91.00;;;;;;6215603;23;20415;-84
2023/05/09 08:22:33;;;;;;;11.20;4.80;;;21.40;91.10;;;;;;6215458;23;20430;-84
2023/05/09 08:25:00;;;;;;;10.73;5.63;;;21.70;90.60;;;;;;6215266;23;20418;-84
2023/05/09 08:27:27;;;;;;;9.60;5.77;;;21.60;87.70;;;;;;6215896;23;20421;-85
2023/05/09 08:29:54;;;;;;;11.60;5.37;;;22.20;90.80;;;;;;6215478;23;20922;-84
2023/05/09 08:32:20;;;;;;;10.77;5.70;;;22.60;85.90;;;;;;6215786;23;20502;-84
2023/05/09 08:34:47;;;;;;;7.93;4.83;;;22.40;85.70;;;;;;6215664;23;20414;-84
2023/05/09 08:37:15;;;;;;;11.03;6.07;;;22.70;86.80;;;;;;6215545;23;20415;-85
2023/05/09 08:39:43;;;;;;;7.80;5.10;;;22.80;84.90;;;;;;6215046;23;20530;-85
2023/05/09 08:42:10;;;;;;;7.90;4.70;;;23.10;81.90;;;;;;6215157;23;20435;-84
2023/05/09 08:44:37;;;;;;;7.70;4.10;;;23.20;81.10;;;;;;6215578;23;20426;-84
2023/05/09 08:47:04;;;;;;;7.37;4.03;;;23.10;76.00;;;;;;6215072;23;20415;-84
2023/05/09 08:49:32;;;;;;;6.50;3.50;;;23.30;78.60;;;;;;6215241;23;20412;-84
2023/05/09 08:51:59;;;;;;;7.27;3.43;;;23.90;73.70;;;;;;6215167;23;20510;-85
2023/05/09 08:54:28;;;;;;;8.07;5.23;;;24.30;74.00;;;;;;6215570;23;20495;-85
2023/05/09 08:56:56;;;;;;;6.60;3.03;;;24.10;71.20;;;;;;6215094;23;20412;-85
2023/05/09 08:59:24;;;;;;;8.10;3.80;;;24.20;70.60;;;;;;6214957;23;20418;-84
2023/05/09 09:01:52;;;;;;;6.90;3.07;;;23.60;68.10;;;;;;6215113;23;20462;-84
2023/05/09 09:04:18;;;;;;;6.40;2.70;;;23.90;69.00;;;;;;6215044;23;20423;-84
2023/05/09 09:06:46;;;;;;;7.37;2.90;;;24.10;67.00;;;;;;6215172;23;20422;-84
2023/05/09 09:09:15;;;;;;;7.27;3.63;;;24.40;63.80;;;;;;6214968;23;20922;-85
2023/05/09 09:11:44;;;;;;;6.53;3.10;;;24.70;61.40;;;;;;6215222;23;21064;-85
2023/05/09 09:14:13;;;;;;;7.63;2.90;;;25.00;62.20;;;;;;6214937;23;20408;-85
2023/05/09 09:16:41;;;;;;;7.93;3.17;;;24.30;57.20;;;;;;6214802;23;20470;-84
2023/05/09 09:19:12;;;;;;;5.20;2.43;;;24.10;58.70;;;;;;6215182;23;20412;-85
2023/05/09 09:21:41;;;;;;;5.20;2.27;;;23.90;61.60;;;;;;6225091;23;20415;-85
2023/05/09 09:24:09;;;;;;;6.63;3.00;;;23.80;58.70;;;;;;6215249;23;20743;-84
2023/05/09 09:26:47;;;;;;;4.87;2.40;;;23.60;59.80;;;;;;6215278;23;20420;-85
2023/05/09 09:29:15;;;;;;;8.10;3.00;;;23.40;59.40;;;;;;6225142;23;20395;-84
2023/05/09 09:31:45;;;;;;;5.93;3.10;;;23.20;62.20;;;;;;6214597;23;20497;-85
2023/05/09 09:34:13;;;;;;;5.47;2.60;;;23.40;65.00;;;;;;6215128;23;20495;-84
2023/05/09 09:36:40;;;;;;;6.53;3.17;;;23.70;62.80;;;;;;6215138;23;20426;-85
2023/05/09 09:39:08;;;;;;;10.13;3.23;;;23.90;60.90;;;;;;6214591;23;20450;-84
2023/05/09 09:41:36;;;;;;;7.23;3.80;;;24.10;57.10;;;;;;6224791;23;20790;-84
2023/05/09 09:44:12;;;;;;;6.43;2.40;;;24.70;55.70;;;;;;6215068;23;20435;-84
2023/05/09 09:46:43;;;;;;;6.00;2.70;;;24.60;57.50;;;;;;6225527;23;20731;-85
2023/05/09 09:49:10;;;;;;;6.47;2.70;;;25.30;55.30;;;;;;6215302;23;20478;-85
2023/05/09 09:51:37;;;;;;;4.87;1.93;;;25.80;51.80;;;;;;6214953;23;20951;-84
2023/05/09 09:54:07;;;;;;;7.63;2.77;;;26.00;45.90;;;;;;6215048;23;20412;-85
2023/05/09 09:56:41;;;;;;;6.33;2.93;;;25.40;46.50;;;;;;6214906;23;20434;-83
2023/05/09 09:59:11;;;;;;;7.50;3.70;;;25.30;48.40;;;;;;6214470;23;20411;-84
2023/05/09 10:01:54;;;;;;;6.63;2.53;;;25.00;46.80;;;;;;6214265;23;20428;-84
2023/05/09 10:04:21;;;;;;;6.23;3.23;;;25.10;45.40;;;;;;6215040;23;20420;-85
2023/05/09 10:06:53;;;;;;;5.80;3.20;;;24.80;49.00;;;;;;6214588;23;20415;-84
2023/05/09 10:09:20;;;;;;;6.60;2.90;;;24.70;47.30;;;;;;6214478;23;20852;-84
2023/05/09 10:11:50;;;;;;;8.50;2.93;;;25.20;49.20;;;;;;6214418;23;20418;-84
2023/05/09 10:14:20;;;;;;;5.93;2.70;;;25.20;49.20;;;;;;6214269;23;20416;-84
2023/05/09 10:16:48;;;;;;;8.70;3.10;;;24.70;48.80;;;;;;6214691;23;20462;-84
2023/05/09 10:19:19;;;;;;;6.40;2.60;;;24.50;48.60;;;;;;6214450;23;20499;-84
2023/05/09 10:21:50;;;;;;;5.90;2.80;;;24.30;49.40;;;;;;6214641;23;20400;-84
2023/05/09 10:24:22;;;;;;;6.50;3.50;;;24.40;52.60;;;;;;6214395;23;20431;-84
2023/05/09 10:26:51;;;;;;;6.80;3.07;;;24.40;50.80;;;;;;6214662;23;20446;-84
2023/05/09 10:29:25;;;;;;;6.50;3.10;;;24.20;53.40;;;;;;6214043;23;20416;-84
2023/05/09 10:31:57;;;;;;;5.70;3.00;;;24.20;54.30;;;;;;6214379;23;20439;-84
2023/05/09 10:34:26;;;;;;;6.70;3.00;;;24.60;54.50;;;;;;6214808;23;20435;-84
2023/05/09 10:36:54;;;;;;;6.40;3.03;;;24.70;52.20;;;;;;6214015;23;20411;-88
2023/05/09 10:39:22;;;;;;;7.13;3.47;;;25.20;50.50;;;;;;6216151;23;20411;-89
2023/05/09 10:41:49;;;;;;;7.80;3.20;;;26.10;47.80;;;;;;6218280;23;20416;-93
2023/05/09 10:44:16;;;;;;;7.33;3.50;;;27.00;44.80;;;;;;6220640;23;21006;-92
2023/05/09 10:46:45;;;;;;;7.10;3.40;;;27.00;41.40;;;;;;6218707;23;20913;-92
2023/05/09 10:49:13;;;;;;;12.17;3.97;;;27.40;40.00;;;;;;6217180;23;20415;-88
2023/05/09 10:51:40;;;;;;;11.20;4.83;;;28.20;36.90;;;;;;6217658;23;20419;-90
2023/05/09 10:54:15;;;;;;;6.47;3.70;;;28.00;34.30;;;;;;6218035;23;20407;-91
2023/05/09 10:56:42;;;;;;;6.80;3.43;;;27.70;33.00;;;;;;6218838;23;20395;-91
2023/05/09 10:59:33;;;;;;;6.40;3.13;;;27.30;35.30;;;;;;6217855;23;20412;-90
2023/05/09 11:02:02;;;;;;;5.63;2.40;;;27.00;37.80;;;;;;6218448;23;20443;-92
2023/05/09 11:04:30;;;;;;;6.77;3.03;;;26.40;37.80;;;;;;6228882;23;20439;-92
2023/05/09 11:06:57;;;;;;;8.40;3.17;;;25.80;36.90;;;;;;6220273;23;20897;-92
2023/05/09 11:09:36;;;;;;;6.63;2.70;;;25.40;40.20;;;;;;6218441;23;20714;-88
2023/05/09 11:12:11;;;;;;;7.00;3.23;;;25.80;40.50;;;;;;6218508;23;20396;-87
2023/05/09 11:14:40;;;;;;;8.50;3.17;;;25.30;40.20;;;;;;6218783;23;20490;-90
2023/05/09 11:17:11;;;;;;;5.50;2.70;;;25.20;40.10;;;;;;6220328;23;20416;-90
2023/05/09 11:19:58;;;;;;;6.40;3.00;;;25.20;42.20;;;;;;6220640;23;20427;-90
2023/05/09 11:22:27;;;;;;;6.30;3.10;;;25.50;43.50;;;;;;6220496;23;20396;-90
2023/05/09 11:25:01;;;;;;;5.40;2.50;;;25.60;40.40;;;;;;6219983;23;20442;-91
2023/05/09 11:27:36;;;;;;;6.07;2.80;;;26.10;37.70;;;;;;6220910;23;20430;-90
2023/05/09 11:30:06;;;;;;;5.93;2.90;;;26.20;37.70;;;;;;6219879;23;20395;-88
2023/05/09 11:32:42;;;;;;;5.83;2.53;;;26.20;39.70;;;;;;6217537;23;20412;-88
2023/05/09 11:35:13;;;;;;;8.03;2.77;;;25.90;40.60;;;;;;6216813;23;20400;-87
2023/05/09 11:37:46;;;;;;;7.03;2.73;;;25.10;40.00;;;;;;6226735;23;20419;-87
2023/05/09 11:40:14;;;;;;;7.30;3.47;;;24.70;43.50;;;;;;6217231;23;20400;-87
2023/05/09 11:42:43;;;;;;;5.90;2.57;;;24.40;45.90;;;;;;6216343;23;21005;-86
2023/05/09 11:45:11;;;;;;;5.80;2.40;;;23.90;47.10;;;;;;6216804;23;20444;-87
2023/05/09 11:47:40;;;;;;;15.43;3.30;;;23.80;48.10;;;;;;6216740;23;20744;-87
2023/05/09 11:50:08;;;;;;;5.57;2.97;;;23.90;49.60;;;;;;6215855;23;20416;-87
2023/05/09 11:52:36;;;;;;;7.27;2.93;;;24.20;48.30;;;;;;6226125;23;20807;-87
2023/05/09 11:55:05;;;;;;;7.07;3.00;;;24.50;51.30;;;;;;6225561;23;20415;-87
2023/05/09 11:57:32;;;;;;;8.10;3.13;;;24.90;46.90;;;;;;6216140;23;20418;-86
2023/05/09 12:00:00;;;;;;;6.80;2.83;;;25.10;46.20;;;;;;6225813;23;20750;-87
2023/05/09 12:02:27;;;;;;;6.00;2.90;;;25.20;47.00;;;;;;6215906;23;20415;-87
2023/05/09 12:04:55;;;;;;;7.30;3.23;;;25.40;46.50;;;;;;6215815;23;20439;-87
2023/05/09 12:07:22;;;;;;;6.57;2.90;;;25.60;45.00;;;;;;6215956;23;20451;-87
2023/05/09 12:09:51;;;;;;;6.80;2.87;;;25.10;46.80;;;;;;6216395;23;20420;-88
2023/05/09 12:12:20;;;;;;;7.77;2.60;;;24.80;47.50;;;;;;6217698;23;20454;-87
2023/05/09 12:14:52;;;;;;;6.30;2.40;;;24.40;44.10;;;;;;6218343;23;20471;-89
2023/05/09 12:17:18;;;;;;;12.37;4.43;;;23.80;42.10;;;;;;6219097;23;20400;-90
2023/05/09 12:19:45;;;;;;;6.97;2.60;;;23.70;47.80;;;;;;6217903;23;20976;-89
2023/05/09 12:22:13;;;;;;;7.77;2.20;;;23.40;44.10;;;;;;6218088;23;20415;-89
2023/05/09 12:24:40;;;;;;;8.40;2.70;;;23.00;43.70;;;;;;6217896;23;20447;-90
2023/05/09 12:27:07;;;;;;;6.80;2.20;;;23.10;47.30;;;;;;6218086;23;20412;-89
2023/05/09 12:29:34;;;;;;;5.30;2.50;;;22.90;45.90;;;;;;6218406;23;20427;-89
2023/05/09 12:32:02;;;;;;;5.87;2.47;;;22.90;48.90;;;;;;6227519;23;20419;-90